Latest Weather Observations for Christmas Island

IDW60801

Issued at 10:33 am WST Sunday 14 April 2024 (issued every 10 minutes, with the page automatically refreshed every 10 minutes)

About weather observations | Map of weather stations | Latest weather observations for WA | Other Formats
Station Details ID: 200790 Name: CHRISTMAS ISLAND AERO Lat: -10.45 Lon: 105.69 Height: 261.0 m
Data from the previous 72 hours. | See also: Recent months at Christmas Island
Date/Time
WST
Temp
°C
App
Temp
°C
Dew
Point
°C
Rel
Hum
%
Delta-T
°C
Wind Press
QNH
hPa
Press
MSL
hPa
Rain since
9am
mm
Dir  Spd
km/h
Gust
km/h
Spd
kts
Gust
kts
14/10:30am 26.2 29.5 23.9 87 1.6 ESE 13 19 7 10 1015.0 1013.4 0.0
14/10:00am 25.8 28.9 23.5 87 1.6 E 13 20 7 11 1015.3 1013.7 0.0
14/09:30am 26.0 28.7 23.5 86 1.7 E 15 22 8 12 1015.3 1013.7 0.0
14/09:00am 26.0 28.6 23.3 85 1.9 E 15 24 8 13 1014.8 1013.2 0.0
14/08:40am 25.9 28.9 23.4 86 1.7 SE 13 26 7 14 1014.4 1012.7 0.0
14/08:30am 25.9 28.9 23.4 86 1.7 SE 13 22 7 12 1014.3 1012.6 0.0
14/08:00am 25.9 28.1 23.2 85 1.9 SE 17 24 9 13 1014.2 1012.5 0.0
14/07:30am 25.8 28.6 23.7 88 1.5 SE 15 24 8 13 1013.7 1012.0 0.0
14/07:00am 25.7 28.6 23.2 86 1.7 SSE 13 24 7 13 1013.3 1011.6 0.0
14/06:30am 25.8 28.8 23.3 86 1.7 ESE 13 24 7 13 1013.0 1011.3 0.0
14/06:00am 25.8 28.5 23.5 87 1.6 SE 15 28 8 15 1012.6 1010.9 0.0
14/05:30am 25.9 29.0 23.6 87 1.6 SE 13 26 7 14 1012.4 1010.7 0.0
14/05:00am 25.9 28.9 23.4 86 1.7 SE 13 26 7 14 1012.3 1010.6 0.0
14/04:45am 25.8 28.3 23.1 85 1.8 SSE 15 22 8 12 1012.3 1010.6 0.0
14/04:32am 25.9 28.9 23.4 86 1.7 SSE 13 19 7 10 1012.6 1010.9 0.0
14/04:30am 25.9 28.9 23.4 86 1.7 SSE 13 24 7 13 1012.7 1011.0 0.0
14/04:22am 25.9 29.2 23.2 85 1.9 SE 11 24 6 13 1012.6 1010.9 0.0
14/04:09am 25.8 28.3 23.1 85 1.8 SE 15 24 8 13 1012.6 1010.9 0.0
14/04:00am 25.9 28.4 23.2 85 1.9 SE 15 30 8 16 1012.6 1010.8 0.0
14/03:30am 26.0 29.2 23.7 87 1.6 SSE 13 28 7 15 1012.6 1010.9 0.0
14/03:00am 25.9 28.9 23.4 86 1.7 SE 13 24 7 13 1012.8 1011.1 0.0
14/02:30am 26.0 29.1 23.5 86 1.7 SE 13 22 7 12 1013.2 1011.5 0.0
14/02:00am 26.0 28.7 23.5 86 1.7 SE 15 24 8 13 1013.4 1011.7 0.0
14/01:30am 26.0 28.9 23.9 88 1.5 SE 15 22 8 12 1013.7 1012.0 0.0
14/01:00am 26.2 28.9 24.1 88 1.5 SE 17 28 9 15 1013.9 1012.2 0.0
14/12:30am 26.0 28.9 23.9 88 1.5 SE 15 22 8 12 1013.9 1012.2 0.0
14/12:00am 26.0 30.2 24.8 93 0.8 SE 11 20 6 11 1013.8 1012.1 0.0
 
Date/Time
WST
Temp
°C
App
Temp
°C
Dew
Point
°C
Rel
Hum
%
Delta-T
°C
Wind Press
QNH
hPa
Press
MSL
hPa
Rain since
9am
mm
Dir  Spd
km/h
Gust
km/h
Spd
kts
Gust
kts
13/11:30pm 26.1 29.8 24.5 91 1.1 SE 13 24 7 13 1013.8 1012.1 0.0
13/11:00pm 26.0 29.9 24.8 93 0.8 ESE 13 22 7 12 1013.7 1012.0 0.0
13/10:30pm 26.0 29.4 24.6 92 1.0 SE 15 24 8 13 1013.6 1011.9 0.0
13/10:00pm 25.8 29.5 24.6 93 0.8 E 13 20 7 11 1013.6 1011.9 0.0
13/09:30pm 25.8 29.2 24.6 93 0.8 SE 15 24 8 13 1013.4 1011.7 0.0
13/09:00pm 25.7 29.0 24.5 93 0.8 SE 15 24 8 13 1013.2 1011.5 0.0
13/08:30pm 25.9 29.4 24.9 94 0.7 SE 15 28 8 15 1012.8 1011.1 0.0
13/08:00pm 26.2 29.7 24.8 92 1.0 SSE 15 24 8 13 1012.5 1010.8 0.0
13/07:52pm 26.4 29.8 24.6 90 1.3 SE 15 26 8 14 1012.4 1010.7 0.0
13/07:30pm 26.4 29.0 23.3 83 2.1 SE 15 22 8 12 1011.9 1010.2 0.0
13/07:00pm 26.5 29.2 23.4 83 2.1 SE 15 20 8 11 1011.6 1009.9 0.0
13/06:30pm 26.8 29.5 23.5 82 2.3 SE 15 22 8 12 1011.3 1009.7 0.0
13/06:00pm 27.4 29.9 23.2 78 2.9 SE 15 22 8 12 1011.1 1009.4 0.0
13/05:30pm 27.4 29.6 23.2 78 2.9 SE 17 30 9 16 1010.8 1009.1 0.0
13/05:00pm 27.8 29.7 23.4 77 3.0 ESE 19 28 10 15 1010.6 1008.9 0.0
13/04:30pm 28.3 30.2 23.4 75 3.4 ESE 19 24 10 13 1010.5 1008.8 0.0
13/04:00pm 28.4 30.3 23.5 75 3.4 ESE 19 26 10 14 1010.6 1008.9 0.0
13/03:30pm 28.6 30.5 23.7 75 3.4 SE 20 28 11 15 1010.7 1009.0 0.0
13/03:00pm 28.3 29.6 23.4 75 3.4 ESE 22 32 12 17 1011.0 1009.3 0.0
13/02:30pm 28.9 30.7 23.6 73 3.7 ESE 20 30 11 16 1011.4 1009.8 0.0
13/02:00pm 28.8 30.0 23.2 71 3.9 ESE 22 30 12 16 1011.9 1010.2 0.0
13/01:30pm 28.6 30.1 23.1 72 3.8 ESE 20 30 11 16 1012.1 1010.4 0.0
13/01:00pm 29.0 31.7 24.1 75 3.4 ESE 17 26 9 14 1012.5 1010.8 0.0
13/12:30pm 28.0 29.8 23.2 75 3.3 ESE 19 26 10 14 1012.7 1011.0 0.0
13/12:00pm 28.5 30.5 23.0 72 3.8 ESE 17 24 9 13 1013.0 1011.3 0.0
13/11:58am 28.6 30.3 23.1 72 3.8 ESE 19 28 10 15 1013.0 1011.3 0.0
13/11:30am 28.6 31.2 23.9 75 3.3 ESE 17 24 9 13 1013.1 1011.4 0.0
13/11:00am 28.0 30.5 23.8 78 2.9 ESE 17 24 9 13 1013.2 1011.5 0.0
13/10:55am 28.2 30.7 23.8 77 3.1 E 17 28 9 15 1013.2 1011.5 0.0
13/10:30am 27.9 29.8 23.5 77 3.0 ESE 19 24 10 13 1013.2 1011.5 0.0
13/10:00am 28.0 29.3 23.4 76 3.2 ESE 22 32 12 17 1013.1 1011.4 0.0
13/09:30am 27.2 28.9 23.4 80 2.6 SE 20 32 11 17 1012.9 1011.2 0.0
13/09:00am 27.2 28.9 23.4 80 2.6 E 20 30 11 16 1012.9 1011.2 0.0
13/08:31am 27.0 28.0 22.8 78 2.9 ENE 22 32 12 17 1012.7 1011.0 0.0
13/08:30am 26.9 28.2 22.7 78 2.9 ENE 20 32 11 17 1012.7 1011.0 0.0
13/08:00am 26.5 28.2 23.4 83 2.1 ENE 20 26 11 14 1012.5 1010.8 0.0
13/07:51am 26.4 28.2 23.3 83 2.1 E 19 28 10 15 1012.6 1010.9 0.0
13/07:30am 25.9 27.8 23.4 86 1.7 ESE 19 26 10 14 1012.4 1010.7 0.0
13/07:00am 25.5 27.1 22.8 85 1.8 SE 19 28 10 15 1012.0 1010.3 0.0
13/06:53am 25.5 27.1 22.8 85 1.8 SE 19 28 10 15 1011.7 1010.1 0.0
13/06:30am 25.5 27.5 23.0 86 1.7 SE 17 24 9 13 1011.6 1010.0 0.0
13/06:09am 25.5 27.5 23.0 86 1.7 SE 17 26 9 14 1011.5 1009.9 0.0
13/06:00am 25.5 27.5 23.0 86 1.7 ESE 17 26 9 14 1011.5 1009.9 0.0
13/05:30am 25.6 27.6 22.9 85 1.8 E 17 26 9 14 1011.5 1009.9 0.0
13/05:00am 25.7 27.7 23.0 85 1.8 E 17 24 9 13 1011.4 1009.8 0.0
13/04:58am 25.6 27.6 22.9 85 1.8 E 17 24 9 13 1011.5 1009.9 0.0
13/04:30am 25.6 27.6 22.9 85 1.8 ESE 17 26 9 14 1011.2 1009.6 0.0
13/04:21am 25.7 27.9 23.2 86 1.7 SE 17 26 9 14 1011.3 1009.7 0.0
13/04:19am 25.6 27.8 23.3 87 1.6 SE 17 26 9 14 1011.3 1009.7 0.0
13/04:00am 25.7 27.9 23.2 86 1.7 SE 17 28 9 15 1011.3 1009.7 0.0
13/03:30am 25.8 28.1 23.5 87 1.6 SE 17 24 9 13 1011.6 1010.0 0.0
13/03:00am 25.8 28.4 23.3 86 1.7 E 15 24 8 13 1011.7 1010.1 0.0
13/02:30am 25.9 28.1 23.2 85 1.9 E 17 24 9 13 1012.1 1010.4 0.0
13/02:17am 26.0 27.8 23.5 86 1.7 E 20 28 11 15 1012.2 1010.5 0.0
13/02:00am 26.1 28.7 24.0 88 1.5 SE 17 24 9 13 1012.2 1010.5 0.0
13/01:30am 26.1 28.7 24.0 88 1.5 SE 17 28 9 15 1012.2 1010.5 0.0
13/01:00am 26.0 28.2 23.3 85 1.9 SE 17 28 9 15 1012.4 1010.7 0.0
13/12:30am 26.0 28.4 23.7 87 1.6 E 17 26 9 14 1012.6 1010.9 0.0
13/12:00am 26.1 28.2 23.8 87 1.6 E 19 28 10 15 1012.7 1011.0 0.0
 
Date/Time
WST
Temp
°C
App
Temp
°C
Dew
Point
°C
Rel
Hum
%
Delta-T
°C
Wind Press
QNH
hPa
Press
MSL
hPa
Rain since
9am
mm
Dir  Spd
km/h
Gust
km/h
Spd
kts
Gust
kts
12/11:30pm 26.2 28.9 24.1 88 1.5 E 17 28 9 15 1012.7 1011.0 0.0
12/11:00pm 26.1 28.2 23.8 87 1.6 E 19 26 10 14 1012.5 1010.8 0.0
12/10:30pm 26.2 28.5 24.1 88 1.5 E 19 30 10 16 1012.5 1010.8 0.0
12/10:00pm 26.2 28.4 23.9 87 1.6 SE 19 26 10 14 1012.6 1010.9 0.0
12/09:31pm 26.2 28.8 23.9 87 1.6 SE 17 24 9 13 1012.7 1011.0 0.0
12/09:30pm 26.2 28.8 23.9 87 1.6 SE 17 26 9 14 1012.7 1011.0 0.0
12/09:00pm 26.2 28.5 23.5 85 1.9 SE 17 28 9 15 1012.6 1010.9 0.0
12/08:30pm 26.3 28.3 23.6 85 1.9 SE 19 30 10 16 1012.4 1010.7 0.0
12/08:00pm 26.3 28.6 23.4 84 2.0 SE 17 24 9 13 1012.0 1010.3 0.0
12/07:30pm 26.3 28.6 23.4 84 2.0 SE 17 26 9 14 1011.6 1010.0 0.0
12/07:00pm 26.5 29.3 23.6 84 2.0 SE 15 24 8 13 1011.3 1009.7 0.0
12/06:30pm 26.9 29.8 23.8 83 2.1 SE 15 22 8 12 1011.1 1009.4 0.0
12/06:00pm 27.1 29.3 23.3 80 2.6 SE 17 22 9 12 1010.8 1009.1 0.0
12/05:30pm 27.5 29.8 23.5 79 2.8 SE 17 26 9 14 1010.7 1009.0 0.0
12/05:00pm 27.9 30.2 23.5 77 3.0 ESE 17 26 9 14 1010.5 1008.8 0.0
12/04:30pm 28.1 30.4 23.5 76 3.2 ESE 17 26 9 14 1010.4 1008.7 0.0
12/04:05pm 28.4 30.9 24.4 79 2.8 ESE 19 28 10 15 1010.5 1008.8 0.0
12/04:00pm 27.9 30.0 23.7 78 2.9 ESE 19 24 10 13 1010.5 1008.8 0.0
12/03:30pm 27.9 30.1 23.9 79 2.8 ESE 19 26 10 14 1010.6 1008.9 0.0
12/03:28pm 27.9 30.0 23.7 78 2.9 ESE 19 26 10 14 1010.6 1008.9 0.0
12/03:00pm 28.4 30.6 24.0 77 3.1 SE 19 26 10 14 1010.8 1009.1 0.0
12/02:30pm 28.6 30.4 23.3 73 3.7 ESE 19 26 10 14 1011.1 1009.4 0.0
12/02:00pm 28.3 29.9 23.2 74 3.5 ESE 20 28 11 15 1011.2 1009.6 0.0
12/01:30pm 28.7 30.4 23.1 71 3.9 ESE 19 28 10 15 1011.5 1009.9 0.0
12/01:00pm 29.0 31.2 24.3 76 3.3 ESE 20 28 11 15 1011.7 1010.1 0.0
12/12:52pm 28.3 30.0 23.4 75 3.4 ESE 20 33 11 18 1011.9 1010.2 0.0
12/12:30pm 29.1 31.1 24.0 74 3.6 ESE 20 28 11 15 1012.3 1010.6 0.0
12/12:00pm 28.7 30.5 24.3 77 3.1 ESE 22 33 12 18 1012.7 1011.0 0.0
12/11:30am 28.6 31.1 24.4 78 2.9 SE 19 30 10 16 1012.7 1011.0 0.0
12/11:00am 28.2 30.7 24.8 82 2.4 SE 20 28 11 15 1013.0 1011.3 0.0
12/10:30am 28.0 30.9 24.4 81 2.5 SE 17 24 9 13 1013.3 1011.6 0.0
12/10:00am 28.1 30.8 24.1 79 2.8 SE 17 28 9 15 1013.4 1011.7 0.0
12/09:30am 28.0 30.9 24.4 81 2.5 SE 17 24 9 13 1013.2 1011.5 0.0
12/09:00am 27.1 29.7 24.0 83 2.2 SE 17 28 9 15 1013.0 1011.3 0.0
12/08:30am 26.8 29.4 23.9 84 2.0 SE 17 28 9 15 1012.9 1011.2 0.0
12/08:00am 26.4 28.7 23.5 84 2.0 SE 17 24 9 13 1012.7 1011.0 0.0
12/07:30am 25.9 28.9 23.4 86 1.7 SE 13 20 7 11 1012.7 1011.0 0.0
12/07:00am 25.7 28.4 23.4 87 1.6 SE 15 24 8 13 1012.6 1010.9 0.0
12/06:30am 25.7 28.8 23.6 88 1.4 SSE 13 24 7 13 1012.3 1010.6 0.0
12/06:00am 25.7 28.2 23.2 86 1.7 SSE 15 24 8 13 1012.0 1010.3 0.0
12/05:30am 25.7 28.4 23.4 87 1.6 SE 15 22 8 12 1011.7 1010.1 0.0
12/05:00am 25.6 28.2 23.3 87 1.6 SE 15 22 8 12 1012.0 1010.3 0.0
12/04:30am 25.7 28.4 23.4 87 1.6 SE 15 24 8 13 1011.9 1010.2 0.0
12/04:04am 25.8 28.2 23.7 88 1.5 SE 17 24 9 13 1011.7 1010.1 0.0
12/04:00am 25.7 28.0 23.4 87 1.6 SE 17 24 9 13 1011.7 1010.1 0.0
12/03:30am 25.7 27.9 23.2 86 1.7 SE 17 24 9 13 1012.1 1010.4 0.0
12/03:00am 25.8 28.2 23.7 88 1.5 SE 17 24 9 13 1012.4 1010.7 0.0
12/02:30am 25.8 28.6 23.7 88 1.5 SE 15 24 8 13 1012.6 1010.9 0.0
12/02:00am 25.8 28.5 23.5 87 1.6 SE 15 22 8 12 1012.9 1011.2 0.0
12/01:30am 25.8 28.6 23.7 88 1.5 SE 15 20 8 11 1013.0 1011.3 0.0
12/01:00am 25.9 28.7 23.6 87 1.6 SE 15 22 8 12 1013.3 1011.6 0.0
12/12:30am 25.9 28.7 23.6 87 1.6 SE 15 28 8 15 1013.5 1011.8 0.0
12/12:00am 25.9 28.8 23.8 88 1.5 SE 15 22 8 12 1013.6 1011.9 0.0
 
Date/Time
WST
Temp
°C
App
Temp
°C
Dew
Point
°C
Rel
Hum
%
Delta-T
°C
Wind Press
QNH
hPa
Press
MSL
hPa
Rain since
9am
mm
Dir  Spd
km/h
Gust
km/h
Spd
kts
Gust
kts
11/11:59pm 25.9 28.8 23.8 88 1.5 SE 15 22 8 12 1013.6 1011.9 0.0
11/11:40pm 25.9 28.7 23.6 87 1.6 SSE 15 22 8 12 1013.6 1011.9 0.0
11/11:30pm 25.9 28.3 23.6 87 1.6 SSE 17 22 9 12 1013.5 1011.8 0.0
11/11:27pm 25.9 28.3 23.6 87 1.6 SSE 17 24 9 13 1013.5 1011.8 0.0
11/11:00pm 26.0 28.2 23.3 85 1.9 SE 17 24 9 13 1013.4 1011.7 0.0
11/10:30pm 26.0 28.6 23.3 85 1.9 SE 15 22 8 12 1013.5 1011.8 0.0
11/10:00pm 25.9 28.3 23.0 84 2.0 SE 15 22 8 12 1013.4 1011.7 0.0
11/09:30pm 26.0 28.9 23.1 84 2.0 SE 13 19 7 10 1013.2 1011.5 0.0
11/09:00pm 26.0 29.1 23.5 86 1.7 SE 13 19 7 10 1012.7 1011.0 0.0
11/08:30pm 26.1 28.8 23.4 85 1.9 SE 15 22 8 12 1012.3 1010.6 0.0
11/08:00pm 26.0 29.0 23.3 85 1.9 SE 13 19 7 10 1011.7 1010.1 0.0
11/07:30pm 26.0 29.4 23.3 85 1.9 SSE 11 19 6 10 1011.4 1009.8 0.0
11/07:00pm 26.1 29.0 23.2 84 2.0 SSE 13 20 7 11 1011.1 1009.4 0.0
11/06:30pm 26.6 29.6 23.3 82 2.3 SSE 13 19 7 10 1010.9 1009.2 0.0
11/06:00pm 27.0 30.0 23.3 80 2.6 ESE 13 19 7 10 1010.7 1009.0 0.0
11/05:30pm 27.6 30.3 23.4 78 2.9 ESE 15 24 8 13 1010.6 1008.9 0.0
11/05:00pm 27.6 30.0 23.0 76 3.2 E 15 20 8 11 1010.6 1008.9 0.0
11/04:30pm 28.3 30.6 23.4 75 3.4 ESE 17 22 9 12 1010.6 1008.9 0.0
11/04:00pm 28.0 30.4 23.6 77 3.1 SE 17 26 9 14 1010.5 1008.8 0.0
11/03:30pm 28.5 30.9 23.6 75 3.4 ESE 17 22 9 12 1010.6 1008.9 0.0
11/03:00pm 28.6 30.9 23.5 74 3.5 E 17 28 9 15 1010.9 1009.2 0.0
11/02:30pm 28.7 30.6 23.4 73 3.7 E 19 24 10 13 1011.2 1009.6 0.0
11/02:00pm 29.0 30.8 23.2 71 4.0 ESE 19 26 10 14 1011.6 1010.0 0.0
11/01:30pm 28.2 29.5 22.7 72 3.8 ESE 20 28 11 15 1012.1 1010.4 0.0
11/01:00pm 28.8 31.0 23.2 71 3.9 ESE 17 28 9 15 1012.4 1010.7 0.0
11/12:30pm 28.3 30.5 23.2 74 3.5 ESE 17 24 9 13 1012.6 1010.9 0.0
11/12:00pm 28.3 30.8 23.2 74 3.5 ESE 15 22 8 12 1013.0 1011.3 0.0

Other formats

Comma delimited format used in spreadsheet applications
http://www.bom.gov.au/fwo/IDW60801/IDW60801.96995.axf

JavaScript Object Notation format (JSON) in row-major order
http://www.bom.gov.au/fwo/IDW60801/IDW60801.96995.json

Data quality

Most of these data are generated automatically and are frequently updated. Quality checks on data are not normally performed. It is possible for incorrect values to appear. Refer to information at About Latest Weather Observations and please check the disclaimer before using these data.